Time;durP1;ratioP1;P1;durP2;ratioP2;P2;SDS_P1;SDS_P2;PMS_P1;PMS_P2;Temp;Humidity;BMP_temperature;BMP_pressure;BME280_temperature;BME280_humidity;BME280_pressure;Samples;Min_cycle;Max_cycle;Signal;HPM_P1;HPM_P2
2023/08/03 00:00:44;;;;;;;3.07;1.93;;;;;23.30;98049.00;;;;2076930;28;20217;-71
2023/08/03 00:01:44;;;;;;;2.93;2.00;;;;;23.30;98059.00;;;;2072113;28;20357;-71
2023/08/03 00:02:45;;;;;;;3.00;1.73;;;;;23.30;98062.00;;;;2064955;28;20222;-71
2023/08/03 00:03:45;;;;;;;3.00;1.77;;;;;23.30;98046.00;;;;2075612;28;20223;-71
2023/08/03 00:04:46;;;;;;;3.00;1.80;;;;;23.30;98060.00;;;;2078325;28;20460;-71
2023/08/03 00:05:47;;;;;;;2.87;1.67;;;;;23.30;98064.00;;;;2077878;28;20308;-71
2023/08/03 00:06:47;;;;;;;3.33;1.80;;;;;23.30;98049.00;;;;2062836;28;20598;-71
2023/08/03 00:07:48;;;;;;;3.80;2.10;;;;;23.20;98061.00;;;;2054772;28;20225;-71
2023/08/03 00:08:48;;;;;;;2.00;1.50;;;;;23.30;98065.00;;;;2072271;28;20206;-71
2023/08/03 00:09:48;;;;;;;2.50;1.53;;;;;23.30;98051.00;;;;2078768;28;20248;-71
2023/08/03 00:10:48;;;;;;;3.03;1.70;;;;;23.20;98048.00;;;;2076470;28;20222;-71
2023/08/03 00:11:49;;;;;;;2.50;1.50;;;;;23.30;98073.00;;;;2078804;28;20279;-71
2023/08/03 00:12:49;;;;;;;2.50;1.40;;;;;23.20;98055.00;;;;2064259;28;20207;-71
2023/08/03 00:13:50;;;;;;;2.20;1.60;;;;;23.20;98061.00;;;;2075944;28;20291;-71
2023/08/03 00:14:50;;;;;;;3.83;1.53;;;;;23.20;98043.00;;;;2066028;28;20596;-71
2023/08/03 00:15:50;;;;;;;2.70;1.47;;;;;22.90;98055.00;;;;2064430;28;20536;-71
2023/08/03 00:16:51;;;;;;;2.67;1.70;;;;;23.30;98062.00;;;;2077559;28;20221;-71
2023/08/03 00:17:51;;;;;;;2.00;1.20;;;;;23.30;98050.00;;;;2065459;28;20295;-71
2023/08/03 00:18:51;;;;;;;2.13;1.30;;;;;23.20;98044.00;;;;2068070;28;20219;-71
2023/08/03 00:19:52;;;;;;;1.90;1.30;;;;;23.20;98063.00;;;;2078501;28;20209;-71
2023/08/03 00:20:52;;;;;;;2.40;1.43;;;;;23.20;98044.00;;;;2071100;28;20210;-71
2023/08/03 00:21:52;;;;;;;1.60;1.20;;;;;23.20;98059.00;;;;2078443;28;20209;-71
2023/08/03 00:22:53;;;;;;;4.43;1.23;;;;;23.20;98044.00;;;;2063470;28;20230;-71
2023/08/03 00:23:53;;;;;;;2.80;1.70;;;;;23.20;98050.00;;;;2075413;28;20229;-71
2023/08/03 00:24:54;;;;;;;2.87;1.80;;;;;23.20;98049.00;;;;2076018;28;20681;-71
2023/08/03 00:25:54;;;;;;;2.20;1.07;;;;;23.20;98033.00;;;;2072044;28;20786;-71
2023/08/03 00:26:54;;;;;;;2.67;1.30;;;;;23.30;98031.00;;;;2077331;28;20245;-71
2023/08/03 00:27:55;;;;;;;3.33;1.20;;;;;23.20;98040.00;;;;2064174;28;20222;-71
2023/08/03 00:28:55;;;;;;;3.73;1.53;;;;;23.20;98046.00;;;;2081790;28;20232;-71
2023/08/03 00:29:55;;;;;;;3.77;1.43;;;;;23.20;98029.00;;;;2074073;28;20222;-71
2023/08/03 00:30:56;;;;;;;3.37;1.53;;;;;23.20;98027.00;;;;2071522;28;20229;-71
2023/08/03 00:31:56;;;;;;;3.37;1.50;;;;;23.20;98042.00;;;;2075622;28;20241;-71
2023/08/03 00:32:56;;;;;;;1.93;1.40;;;;;23.20;98044.00;;;;2061822;28;20222;-71
2023/08/03 00:33:57;;;;;;;2.20;0.83;;;;;23.20;98014.00;;;;2072849;28;20268;-71
2023/08/03 00:34:57;;;;;;;4.40;1.10;;;;;23.20;98042.00;;;;2072667;28;20218;-71
2023/08/03 00:35:57;;;;;;;1.30;0.90;;;;;23.20;98037.00;;;;2072157;28;20222;-71
2023/08/03 00:36:58;;;;;;;2.30;0.97;;;;;23.20;98036.00;;;;2073891;28;20210;-71
2023/08/03 00:37:59;;;;;;;1.30;1.00;;;;;23.20;98044.00;;;;2069575;28;20232;-71
2023/08/03 00:39:00;;;;;;;3.80;1.38;;;;;23.20;98036.00;;;;2073823;28;20297;-71
2023/08/03 00:40:00;;;;;;;2.70;1.20;;;;;23.20;98030.00;;;;2070963;28;20218;-71
2023/08/03 00:41:00;;;;;;;2.97;1.27;;;;;23.20;98045.00;;;;2079368;28;20251;-71
2023/08/03 00:42:01;;;;;;;2.03;1.00;;;;;23.20;98052.00;;;;2073068;28;20215;-71
2023/08/03 00:43:04;;;;;;;1.53;1.13;;;;;23.20;98027.00;;;;2055138;28;20227;-71
2023/08/03 00:44:04;;;;;;;1.95;1.10;;;;;23.20;98040.00;;;;2067317;28;20223;-71
2023/08/03 00:45:05;;;;;;;3.30;1.30;;;;;23.20;98013.00;;;;2066914;28;20277;-71
2023/08/03 00:46:05;;;;;;;2.17;1.07;;;;;23.20;98038.00;;;;2071089;28;20214;-71
2023/08/03 00:47:06;;;;;;;1.43;1.00;;;;;23.20;98031.00;;;;2056972;28;20459;-71
2023/08/03 00:48:06;;;;;;;2.30;1.00;;;;;23.20;98030.00;;;;2058515;28;20250;-71
2023/08/03 00:49:07;;;;;;;2.30;1.20;;;;;23.20;97998.00;;;;2074292;28;20216;-71
2023/08/03 00:50:07;;;;;;;1.53;1.10;;;;;23.20;98027.00;;;;2065661;28;20211;-71
2023/08/03 00:51:08;;;;;;;1.07;0.73;;;;;23.20;98033.00;;;;2076973;28;20884;-71
2023/08/03 00:52:08;;;;;;;2.93;1.00;;;;;23.20;98024.00;;;;2080200;28;20224;-71
2023/08/03 00:53:08;;;;;;;1.60;1.00;;;;;23.20;98026.00;;;;2065163;28;20210;-71
2023/08/03 00:54:09;;;;;;;1.40;0.90;;;;;23.20;98033.00;;;;2063892;28;20221;-71
2023/08/03 00:55:09;;;;;;;2.10;1.20;;;;;23.20;98045.00;;;;2072537;28;20247;-71
2023/08/03 00:56:10;;;;;;;1.40;0.90;;;;;23.20;98039.00;;;;2075081;28;20222;-71
2023/08/03 00:57:10;;;;;;;3.87;1.37;;;;;23.20;98040.00;;;;2080152;28;20681;-71
2023/08/03 00:58:10;;;;;;;2.30;1.00;;;;;23.20;98042.00;;;;2064200;28;20237;-71
2023/08/03 00:59:11;;;;;;;1.50;0.80;;;;;23.20;98048.00;;;;2071602;28;20752;-71
2023/08/03 01:00:11;;;;;;;1.13;0.60;;;;;23.20;98044.00;;;;2072364;28;20226;-71
2023/08/03 01:01:12;;;;;;;1.70;0.93;;;;;23.20;98047.00;;;;2073589;28;20225;-71
2023/08/03 01:02:12;;;;;;;1.83;0.70;;;;;23.20;98060.00;;;;2080150;28;20205;-71
2023/08/03 01:03:12;;;;;;;1.50;0.93;;;;;23.20;98068.00;;;;2061973;28;20225;-71
2023/08/03 01:04:13;;;;;;;3.03;1.00;;;;;23.20;98061.00;;;;2073328;28;20238;-71
2023/08/03 01:05:13;;;;;;;1.40;0.70;;;;;23.20;98050.00;;;;2079408;28;20214;-71
2023/08/03 01:06:13;;;;;;;1.43;0.87;;;;;23.20;98054.00;;;;2072526;28;20218;-71
2023/08/03 01:07:14;;;;;;;1.57;0.80;;;;;23.20;98053.00;;;;2077870;28;20228;-71
2023/08/03 01:08:14;;;;;;;1.30;0.80;;;;;23.20;98056.00;;;;2062033;28;20218;-71
2023/08/03 01:09:14;;;;;;;1.87;0.70;;;;;23.20;98082.00;;;;2076235;28;20281;-71
2023/08/03 01:10:15;;;;;;;2.10;0.90;;;;;23.20;98057.00;;;;2071489;28;20309;-71
2023/08/03 01:11:15;;;;;;;1.37;0.90;;;;;23.20;98069.00;;;;2073472;28;20285;-71
2023/08/03 01:12:16;;;;;;;1.87;0.87;;;;;23.20;98066.00;;;;2079644;28;20287;-71
2023/08/03 01:13:16;;;;;;;2.80;0.97;;;;;23.20;98062.00;;;;2054322;28;20214;-71
2023/08/03 01:14:17;;;;;;;2.93;1.10;;;;;23.20;98070.00;;;;2067262;28;20672;-71
2023/08/03 01:15:17;;;;;;;1.53;0.80;;;;;23.20;98071.00;;;;2073604;28;20582;-71
2023/08/03 01:16:17;;;;;;;1.27;0.70;;;;;23.20;98082.00;;;;2064823;28;20226;-71
2023/08/03 01:17:17;;;;;;;3.37;0.80;;;;;23.20;98088.00;;;;2066417;28;20218;-71
2023/08/03 01:18:18;;;;;;;2.50;0.90;;;;;23.20;98095.00;;;;2061132;28;20234;-71
2023/08/03 01:19:18;;;;;;;2.83;0.73;;;;;23.20;98093.00;;;;2073035;28;20213;-71
2023/08/03 01:20:19;;;;;;;1.00;0.60;;;;;23.20;98087.00;;;;2063309;28;20210;-71
2023/08/03 01:21:19;;;;;;;3.37;0.70;;;;;23.20;98086.00;;;;2060612;28;20219;-71
2023/08/03 01:22:19;;;;;;;2.60;0.80;;;;;23.20;98089.00;;;;2068471;28;20222;-71
2023/08/03 01:23:20;;;;;;;1.00;0.70;;;;;23.20;98093.00;;;;2060445;28;20273;-71
2023/08/03 01:24:20;;;;;;;1.20;0.80;;;;;23.20;98089.00;;;;2063224;28;20211;-71
2023/08/03 01:25:20;;;;;;;2.03;0.70;;;;;23.20;98103.00;;;;2071672;28;20206;-71
2023/08/03 01:26:21;;;;;;;1.50;0.70;;;;;23.20;98115.00;;;;2073289;28;20214;-71
2023/08/03 01:27:21;;;;;;;1.07;0.60;;;;;23.20;98103.00;;;;2066214;28;20301;-71
2023/08/03 01:28:22;;;;;;;2.30;0.80;;;;;23.20;98108.00;;;;2067896;28;20241;-71
2023/08/03 01:29:22;;;;;;;2.00;0.80;;;;;23.20;98128.00;;;;2071404;28;20277;-71
2023/08/03 01:30:22;;;;;;;1.40;0.80;;;;;23.20;98112.00;;;;2074236;28;20214;-71
2023/08/03 01:31:23;;;;;;;2.60;0.63;;;;;23.20;98141.00;;;;2078435;28;20205;-71
2023/08/03 01:32:23;;;;;;;1.30;0.60;;;;;23.20;98114.00;;;;2064971;28;20218;-71
2023/08/03 01:33:23;;;;;;;2.90;0.70;;;;;23.20;98117.00;;;;2066646;28;20228;-71
2023/08/03 01:34:24;;;;;;;1.30;0.70;;;;;23.20;98136.00;;;;2072430;28;20217;-71
2023/08/03 01:35:24;;;;;;;1.87;0.83;;;;;23.20;98132.00;;;;2068328;28;20666;-71
2023/08/03 01:36:25;;;;;;;1.77;0.77;;;;;23.20;98133.00;;;;2068326;28;20304;-71
2023/08/03 01:37:26;;;;;;;1.60;0.60;;;;;23.20;98123.00;;;;2070963;28;20265;-71
2023/08/03 01:38:26;;;;;;;1.65;0.85;;;;;23.20;98135.00;;;;2062967;28;20300;-71
2023/08/03 01:39:26;;;;;;;1.90;0.73;;;;;23.20;98130.00;;;;2067891;28;20610;-71
2023/08/03 01:40:27;;;;;;;1.00;0.80;;;;;23.20;98133.00;;;;2072161;28;20772;-71
2023/08/03 01:41:27;;;;;;;1.67;0.70;;;;;23.10;98146.00;;;;2066253;28;20207;-71
2023/08/03 01:42:27;;;;;;;1.73;0.70;;;;;23.20;98144.00;;;;2065471;28;20210;-71
2023/08/03 01:43:28;;;;;;;1.27;0.63;;;;;23.20;98147.00;;;;2056284;28;20229;-71
2023/08/03 01:44:29;;;;;;;1.17;0.63;;;;;23.10;98139.00;;;;2073993;28;20206;-71
2023/08/03 01:45:29;;;;;;;0.80;0.60;;;;;23.10;98147.00;;;;2074759;28;20212;-71
2023/08/03 01:46:29;;;;;;;1.83;0.77;;;;;23.20;98133.00;;;;2071446;28;20848;-71
2023/08/03 01:47:30;;;;;;;1.90;0.83;;;;;23.20;98149.00;;;;2065910;28;20245;-71
2023/08/03 01:48:30;;;;;;;1.10;0.60;;;;;23.20;98155.00;;;;2044291;28;20216;-71
2023/08/03 01:49:31;;;;;;;0.80;0.63;;;;;23.20;98139.00;;;;2062766;28;20199;-71
2023/08/03 01:50:31;;;;;;;1.93;0.60;;;;;23.20;98148.00;;;;2069969;28;20658;-71
2023/08/03 01:51:32;;;;;;;1.53;0.60;;;;;23.20;98153.00;;;;2075127;28;21033;-71
2023/08/03 01:52:32;;;;;;;1.57;0.60;;;;;23.20;98156.00;;;;2077424;28;20564;-71
2023/08/03 01:53:32;;;;;;;1.87;0.60;;;;;23.20;98148.00;;;;2068954;28;20229;-71
2023/08/03 01:54:33;;;;;;;1.30;0.70;;;;;23.20;98156.00;;;;2075157;28;20273;-71
2023/08/03 01:55:33;;;;;;;1.23;0.77;;;;;23.10;98150.00;;;;2071521;28;20202;-71
2023/08/03 01:56:33;;;;;;;1.17;0.87;;;;;23.20;98161.00;;;;2075427;28;20266;-71
2023/08/03 01:57:34;;;;;;;1.83;0.80;;;;;23.20;98155.00;;;;2067907;28;20263;-71
2023/08/03 01:58:35;;;;;;;1.50;0.80;;;;;23.10;98152.00;;;;2075507;28;20218;-71
2023/08/03 01:59:35;;;;;;;1.63;0.60;;;;;23.10;98154.00;;;;2075893;28;21073;-71
2023/08/03 02:00:35;;;;;;;1.37;0.60;;;;;23.20;98160.00;;;;2054177;28;21017;-71
2023/08/03 02:01:36;;;;;;;1.13;0.60;;;;;23.20;98171.00;;;;2058704;28;20264;-71
2023/08/03 02:02:36;;;;;;;1.33;0.70;;;;;23.20;98158.00;;;;2056512;28;20215;-71
2023/08/03 02:03:36;;;;;;;1.67;0.77;;;;;23.20;98155.00;;;;2066918;28;20280;-71
2023/08/03 02:04:37;;;;;;;1.30;0.70;;;;;23.10;98172.00;;;;2070602;28;20217;-71
2023/08/03 02:05:37;;;;;;;1.93;0.87;;;;;23.10;98156.00;;;;2074405;28;20241;-71
2023/08/03 02:06:38;;;;;;;0.93;0.60;;;;;23.20;98160.00;;;;2074983;28;20220;-71
2023/08/03 02:07:45;;;;;;;0.93;0.60;;;;;23.20;98143.00;;;;2063140;28;20214;-71
2023/08/03 02:08:46;;;;;;;1.70;0.75;;;;;23.20;98145.00;;;;2076888;28;20747;-71
2023/08/03 02:09:46;;;;;;;1.80;0.83;;;;;23.10;98183.00;;;;2071684;28;20360;-71
2023/08/03 02:10:46;;;;;;;1.13;0.60;;;;;23.10;98180.00;;;;2074443;28;20229;-71
2023/08/03 02:11:47;;;;;;;2.10;0.80;;;;;23.10;98172.00;;;;2073896;28;20213;-71
2023/08/03 02:12:47;;;;;;;1.40;0.77;;;;;23.10;98169.00;;;;2067026;28;20245;-71
2023/08/03 02:13:47;;;;;;;2.77;0.70;;;;;23.10;98176.00;;;;2078027;28;20241;-71
2023/08/03 02:14:48;;;;;;;1.53;0.70;;;;;23.10;98202.00;;;;2070230;28;20241;-71
2023/08/03 02:15:48;;;;;;;1.80;0.70;;;;;23.10;98179.00;;;;2073163;28;20284;-71
2023/08/03 02:16:49;;;;;;;0.90;0.60;;;;;23.10;98181.00;;;;2071266;28;20277;-71
2023/08/03 02:17:49;;;;;;;2.07;1.00;;;;;23.10;98176.00;;;;2066963;28;20585;-71
2023/08/03 02:18:49;;;;;;;1.60;0.80;;;;;23.10;98180.00;;;;2076825;28;20713;-71
2023/08/03 02:19:50;;;;;;;1.00;0.60;;;;;23.10;98183.00;;;;2076585;28;20641;-71
2023/08/03 02:20:50;;;;;;;1.50;0.60;;;;;23.10;98177.00;;;;2074223;28;20222;-71
2023/08/03 02:21:50;;;;;;;1.70;0.70;;;;;23.10;98163.00;;;;2076026;28;20700;-71
2023/08/03 02:22:51;;;;;;;1.93;0.67;;;;;23.10;98183.00;;;;2066357;28;20213;-71
2023/08/03 02:23:51;;;;;;;1.33;0.70;;;;;23.10;98196.00;;;;2072831;28;20218;-71
2023/08/03 02:24:52;;;;;;;2.07;0.97;;;;;23.10;98177.00;;;;2077546;28;20605;-71
2023/08/03 02:25:52;;;;;;;1.53;0.67;;;;;23.10;98189.00;;;;2075336;28;20260;-71
2023/08/03 02:26:52;;;;;;;1.20;0.60;;;;;23.10;98186.00;;;;2075675;28;20216;-71
2023/08/03 02:27:52;;;;;;;1.27;0.67;;;;;23.10;98195.00;;;;2067471;28;20230;-71
2023/08/03 02:28:53;;;;;;;1.23;0.70;;;;;23.10;98203.00;;;;2071634;28;20210;-71
2023/08/03 02:29:54;;;;;;;2.07;0.80;;;;;23.00;98192.00;;;;2068953;28;20220;-71
2023/08/03 02:30:54;;;;;;;1.20;0.60;;;;;23.10;98207.00;;;;2070779;28;20520;-71
2023/08/03 02:31:54;;;;;;;1.50;0.70;;;;;23.10;98197.00;;;;2073482;28;20613;-71
2023/08/03 02:32:55;;;;;;;2.60;0.80;;;;;23.10;98200.00;;;;2063326;28;20238;-71
2023/08/03 02:33:55;;;;;;;1.03;0.57;;;;;23.10;98186.00;;;;2070543;28;20234;-71
2023/08/03 02:34:55;;;;;;;1.73;0.67;;;;;23.10;98188.00;;;;2060936;28;20256;-71
2023/08/03 02:35:56;;;;;;;2.80;0.80;;;;;23.10;98198.00;;;;2076657;28;20812;-71
2023/08/03 02:36:56;;;;;;;1.30;0.60;;;;;23.10;98196.00;;;;2074949;28;20256;-71
2023/08/03 02:37:56;;;;;;;1.93;0.60;;;;;23.10;98204.00;;;;2062133;28;20686;-71
2023/08/03 02:38:57;;;;;;;1.73;0.60;;;;;23.10;98161.00;;;;2072132;28;20602;-71
2023/08/03 02:39:57;;;;;;;1.00;0.70;;;;;23.10;98192.00;;;;2068842;28;20246;-71
2023/08/03 02:40:58;;;;;;;1.53;0.60;;;;;23.10;98194.00;;;;2077555;28;20267;-71
2023/08/03 02:41:58;;;;;;;4.13;0.80;;;;;23.10;98184.00;;;;2072777;28;20214;-71
2023/08/03 02:42:58;;;;;;;2.20;1.00;;;;;23.10;98200.00;;;;2061291;28;20237;-71
2023/08/03 02:43:59;;;;;;;1.50;0.60;;;;;23.10;98199.00;;;;2079538;28;20236;-71
2023/08/03 02:44:59;;;;;;;1.47;0.70;;;;;23.10;98206.00;;;;2072743;28;20206;-71
2023/08/03 02:45:59;;;;;;;1.73;0.73;;;;;23.10;98201.00;;;;2079137;28;20566;-71
2023/08/03 02:47:00;;;;;;;2.30;0.87;;;;;23.10;98197.00;;;;2077164;28;20214;-71
2023/08/03 02:48:00;;;;;;;1.83;0.87;;;;;23.10;98198.00;;;;2063136;28;20234;-71
2023/08/03 02:49:00;;;;;;;1.30;0.70;;;;;23.10;98209.00;;;;2080206;28;20233;-71
2023/08/03 02:50:01;;;;;;;1.37;0.53;;;;;23.10;98212.00;;;;2072116;28;20237;-71
2023/08/03 02:51:01;;;;;;;3.63;0.80;;;;;23.10;98199.00;;;;2080030;28;20224;-71
2023/08/03 02:52:01;;;;;;;1.97;0.80;;;;;23.10;98203.00;;;;2074425;28;20210;-71
2023/08/03 02:53:02;;;;;;;2.50;0.83;;;;;23.10;98222.00;;;;2066647;28;20253;-71
2023/08/03 02:54:02;;;;;;;1.80;0.60;;;;;23.10;98211.00;;;;2077164;28;20255;-71
2023/08/03 02:55:03;;;;;;;3.23;0.90;;;;;23.10;98212.00;;;;2073690;28;20222;-71
2023/08/03 02:56:03;;;;;;;1.50;0.53;;;;;23.10;98197.00;;;;2078617;28;20236;-71
2023/08/03 02:57:04;;;;;;;1.37;0.60;;;;;23.10;98243.00;;;;2072473;28;20218;-71
2023/08/03 02:58:04;;;;;;;2.57;0.80;;;;;23.10;98208.00;;;;2063146;28;20313;-72
2023/08/03 02:59:05;;;;;;;1.57;0.70;;;;;23.10;98214.00;;;;2074286;28;20221;-72
2023/08/03 03:00:06;;;;;;;2.77;0.70;;;;;23.10;98220.00;;;;2072159;28;20725;-72
2023/08/03 03:01:06;;;;;;;1.30;0.70;;;;;23.10;98222.00;;;;2067600;28;20222;-72
2023/08/03 03:02:06;;;;;;;1.83;0.70;;;;;23.10;98229.00;;;;2064183;28;20457;-71
2023/08/03 03:03:07;;;;;;;2.17;0.70;;;;;23.10;98219.00;;;;2056028;28;20325;-71
2023/08/03 03:04:07;;;;;;;1.53;0.63;;;;;23.10;98228.00;;;;2073318;28;20226;-71
2023/08/03 03:05:08;;;;;;;2.30;0.93;;;;;23.10;98236.00;;;;2080658;28;20215;-71
2023/08/03 03:06:08;;;;;;;1.30;0.80;;;;;23.10;98223.00;;;;2077485;28;20225;-71
2023/08/03 03:07:08;;;;;;;2.63;0.83;;;;;23.10;98217.00;;;;2080480;28;20755;-71
2023/08/03 03:08:09;;;;;;;2.23;0.83;;;;;23.10;98227.00;;;;2067156;28;20741;-71
2023/08/03 03:09:09;;;;;;;2.57;0.93;;;;;23.10;98212.00;;;;2071374;28;20249;-71
2023/08/03 03:10:10;;;;;;;1.97;0.70;;;;;23.10;98213.00;;;;2076418;28;20244;-71
2023/08/03 03:11:10;;;;;;;1.80;0.87;;;;;23.10;98216.00;;;;2071540;28;20588;-71
2023/08/03 03:12:10;;;;;;;1.63;0.83;;;;;23.10;98221.00;;;;2079711;28;20237;-71
2023/08/03 03:13:10;;;;;;;1.97;0.90;;;;;23.10;98226.00;;;;2066297;28;20222;-71
2023/08/03 03:14:11;;;;;;;1.20;0.67;;;;;23.10;98229.00;;;;2076609;28;20221;-71
2023/08/03 03:15:11;;;;;;;1.30;0.67;;;;;23.10;98212.00;;;;2072727;28;20237;-71
2023/08/03 03:16:11;;;;;;;1.90;0.63;;;;;23.10;98216.00;;;;2071959;28;20221;-71
2023/08/03 03:17:12;;;;;;;1.23;0.60;;;;;23.10;98212.00;;;;2078271;28;20571;-71
2023/08/03 03:18:13;;;;;;;3.13;0.97;;;;;23.10;98221.00;;;;2064316;28;20223;-71
2023/08/03 03:19:13;;;;;;;1.73;0.67;;;;;23.10;98246.00;;;;2075258;28;20293;-71
2023/08/03 03:20:13;;;;;;;1.40;0.80;;;;;23.10;98217.00;;;;2075994;28;20365;-71
2023/08/03 03:21:14;;;;;;;1.63;0.70;;;;;23.00;98216.00;;;;2072823;28;20225;-71
2023/08/03 03:22:14;;;;;;;3.20;1.07;;;;;23.10;98225.00;;;;2076995;28;20783;-71
2023/08/03 03:23:14;;;;;;;2.87;1.13;;;;;23.10;98215.00;;;;2053788;28;20315;-71
2023/08/03 03:24:15;;;;;;;2.30;0.70;;;;;23.10;98234.00;;;;2055847;28;20267;-71
2023/08/03 03:25:15;;;;;;;1.10;0.70;;;;;23.10;98216.00;;;;2072109;28;20704;-71
2023/08/03 03:26:15;;;;;;;2.90;1.03;;;;;23.10;98225.00;;;;2080307;28;20225;-70
2023/08/03 03:27:16;;;;;;;1.77;0.63;;;;;23.10;98225.00;;;;2075301;28;20257;-71
2023/08/03 03:28:16;;;;;;;1.40;0.60;;;;;23.10;98219.00;;;;2070306;28;20630;-71
2023/08/03 03:29:16;;;;;;;1.43;0.80;;;;;23.10;98221.00;;;;2072344;28;20222;-71
2023/08/03 03:30:17;;;;;;;1.50;0.60;;;;;23.10;98227.00;;;;2072057;28;20214;-71
2023/08/03 03:31:17;;;;;;;1.80;0.70;;;;;23.10;98212.00;;;;2080094;28;20288;-71
2023/08/03 03:32:17;;;;;;;2.70;0.87;;;;;23.10;98229.00;;;;2073376;28;20693;-71
2023/08/03 03:33:18;;;;;;;1.97;0.87;;;;;23.10;98226.00;;;;2068849;28;20605;-71
2023/08/03 03:34:18;;;;;;;1.73;0.80;;;;;23.10;98234.00;;;;2076521;28;20359;-71
2023/08/03 03:35:18;;;;;;;3.50;0.90;;;;;23.10;98235.00;;;;2076428;28;20241;-71
2023/08/03 03:36:19;;;;;;;3.40;1.10;;;;;23.10;98238.00;;;;2077593;28;20218;-71
2023/08/03 03:37:19;;;;;;;3.00;0.67;;;;;23.10;98242.00;;;;2071748;28;20273;-71
2023/08/03 03:38:19;;;;;;;3.10;0.80;;;;;23.10;98247.00;;;;2067373;28;20271;-71
2023/08/03 03:39:20;;;;;;;1.47;0.70;;;;;23.10;98243.00;;;;2063201;28;20298;-71
2023/08/03 03:40:20;;;;;;;2.73;1.00;;;;;23.10;98255.00;;;;2074416;28;20589;-71
2023/08/03 03:41:20;;;;;;;1.10;0.70;;;;;23.00;98266.00;;;;2075641;28;20714;-71
2023/08/03 03:42:21;;;;;;;1.57;0.70;;;;;23.10;98256.00;;;;2072517;28;20720;-71
2023/08/03 03:43:21;;;;;;;1.10;0.60;;;;;23.10;98259.00;;;;2065745;28;20222;-71
2023/08/03 03:44:21;;;;;;;1.40;0.70;;;;;23.10;98250.00;;;;2073028;28;20605;-71
2023/08/03 03:45:22;;;;;;;2.00;0.90;;;;;23.10;98254.00;;;;2074190;28;20217;-71
2023/08/03 03:46:22;;;;;;;2.40;0.83;;;;;23.10;98250.00;;;;2073165;28;20254;-71
2023/08/03 03:47:22;;;;;;;1.50;0.60;;;;;23.10;98259.00;;;;2078964;28;20222;-71
2023/08/03 03:48:23;;;;;;;2.67;0.93;;;;;23.10;98262.00;;;;2062853;28;20226;-71
2023/08/03 03:49:23;;;;;;;1.43;0.60;;;;;23.10;98262.00;;;;2078388;28;20245;-71
2023/08/03 03:50:24;;;;;;;3.87;0.83;;;;;23.10;98263.00;;;;2065895;28;20214;-71
2023/08/03 03:51:24;;;;;;;3.40;1.20;;;;;23.00;98257.00;;;;2073375;28;20222;-71
2023/08/03 03:52:24;;;;;;;2.30;0.90;;;;;23.10;98259.00;;;;2079835;28;20244;-71
2023/08/03 03:53:25;;;;;;;2.47;1.03;;;;;23.10;98244.00;;;;2063846;28;20222;-71
2023/08/03 03:54:25;;;;;;;2.40;0.93;;;;;23.00;98259.00;;;;2077537;28;20736;-71
2023/08/03 03:55:25;;;;;;;1.50;0.83;;;;;23.10;98266.00;;;;2072889;28;20339;-71
2023/08/03 03:56:26;;;;;;;1.57;0.90;;;;;23.10;98270.00;;;;2073919;28;20229;-71
2023/08/03 03:57:26;;;;;;;2.13;0.90;;;;;23.10;98268.00;;;;2070518;28;20222;-71
2023/08/03 03:58:26;;;;;;;1.30;0.70;;;;;23.10;98264.00;;;;2063528;28;20244;-71
2023/08/03 03:59:27;;;;;;;2.27;0.70;;;;;23.10;98258.00;;;;2078252;28;20222;-71
2023/08/03 04:00:27;;;;;;;1.20;0.70;;;;;23.10;98274.00;;;;2075853;28;20221;-71
2023/08/03 04:01:27;;;;;;;2.77;1.00;;;;;23.10;98267.00;;;;2075798;28;20241;-71
2023/08/03 04:02:28;;;;;;;2.30;0.77;;;;;23.10;98274.00;;;;2076376;28;20210;-71
2023/08/03 04:03:28;;;;;;;2.23;0.90;;;;;23.10;98270.00;;;;2064042;28;20221;-71
2023/08/03 04:04:28;;;;;;;1.30;0.70;;;;;23.10;98268.00;;;;2077057;28;20234;-71
2023/08/03 04:05:29;;;;;;;2.10;0.70;;;;;23.10;98278.00;;;;2033574;28;1049524;-71
2023/08/03 04:06:29;;;;;;;1.97;0.73;;;;;23.10;98280.00;;;;2073960;28;20772;-71
2023/08/03 04:07:29;;;;;;;1.03;0.63;;;;;23.10;98280.00;;;;2076751;28;20276;-71
2023/08/03 04:08:30;;;;;;;1.80;0.70;;;;;23.10;98269.00;;;;2069136;28;20213;-71
2023/08/03 04:09:30;;;;;;;3.03;0.93;;;;;23.10;98266.00;;;;2072500;28;20225;-71
2023/08/03 04:10:30;;;;;;;1.30;0.63;;;;;23.10;98256.00;;;;2072935;28;20250;-71
2023/08/03 04:11:31;;;;;;;1.90;1.07;;;;;23.10;98266.00;;;;2074461;28;20209;-71
2023/08/03 04:12:31;;;;;;;1.60;0.67;;;;;23.00;98266.00;;;;2073561;28;20260;-71
2023/08/03 04:13:32;;;;;;;3.13;0.70;;;;;23.10;98270.00;;;;2066071;28;20221;-71
2023/08/03 04:14:32;;;;;;;2.57;0.70;;;;;23.10;98270.00;;;;2073228;28;20225;-71
2023/08/03 04:15:32;;;;;;;1.40;0.77;;;;;23.00;98262.00;;;;2071928;28;20686;-71
2023/08/03 04:16:33;;;;;;;2.17;0.70;;;;;23.00;98256.00;;;;2071859;28;20198;-71
2023/08/03 04:17:33;;;;;;;2.10;0.93;;;;;23.10;98270.00;;;;2068540;28;20222;-71
2023/08/03 04:18:35;;;;;;;2.10;1.13;;;;;23.00;98264.00;;;;2071649;28;20208;-71
2023/08/03 04:19:35;;;;;;;2.50;0.90;;;;;23.10;98241.00;;;;2073593;28;20952;-71
2023/08/03 04:20:35;;;;;;;1.57;0.70;;;;;23.00;98280.00;;;;2078139;28;20221;-71
2023/08/03 04:21:36;;;;;;;2.03;0.70;;;;;23.00;98270.00;;;;2073423;28;20264;-71
2023/08/03 04:22:36;;;;;;;2.33;0.60;;;;;23.00;98261.00;;;;2062849;28;20217;-71
2023/08/03 04:23:36;;;;;;;2.20;0.80;;;;;23.00;98260.00;;;;2076554;28;20208;-71
2023/08/03 04:24:38;;;;;;;1.00;0.50;;;;;23.00;98268.00;;;;2075385;28;20201;-71
2023/08/03 04:25:38;;;;;;;1.95;0.70;;;;;23.00;98275.00;;;;2077201;28;20613;-71
2023/08/03 04:26:39;;;;;;;2.23;0.70;;;;;23.10;98266.00;;;;2073043;28;20217;-71
2023/08/03 04:27:39;;;;;;;1.77;0.60;;;;;22.90;98272.00;;;;2064201;28;20226;-71
2023/08/03 04:28:42;;;;;;;2.47;0.70;;;;;23.00;98274.00;;;;2076825;28;20245;-71
2023/08/03 04:29:42;;;;;;;1.60;0.70;;;;;23.00;98265.00;;;;2079086;28;20209;-71
2023/08/03 04:30:43;;;;;;;1.63;0.70;;;;;23.00;98272.00;;;;2072408;28;20693;-71
2023/08/03 04:31:43;;;;;;;2.40;0.83;;;;;23.00;98279.00;;;;2069450;28;20569;-71
2023/08/03 04:32:43;;;;;;;3.00;0.80;;;;;23.00;98283.00;;;;2065267;28;20569;-71
2023/08/03 04:33:44;;;;;;;2.30;0.60;;;;;23.00;98282.00;;;;2074841;28;20820;-71
2023/08/03 04:34:44;;;;;;;2.40;0.90;;;;;23.00;98285.00;;;;2079960;28;20677;-71
2023/08/03 04:35:44;;;;;;;1.43;0.70;;;;;23.00;98291.00;;;;2075416;28;20665;-71
2023/08/03 04:36:47;;;;;;;1.23;0.70;;;;;23.00;98251.00;;;;2075096;28;20813;-71
2023/08/03 04:37:47;;;;;;;1.80;0.57;;;;;23.00;98290.00;;;;2061181;28;20217;-71
2023/08/03 04:38:48;;;;;;;1.47;0.80;;;;;23.00;98286.00;;;;2071827;28;20252;-71
2023/08/03 04:39:49;;;;;;;3.23;0.93;;;;;23.00;98299.00;;;;2074349;28;20227;-71
2023/08/03 04:40:49;;;;;;;3.20;0.85;;;;;23.00;98303.00;;;;2076592;28;20271;-71
2023/08/03 04:41:49;;;;;;;1.70;0.80;;;;;23.00;98298.00;;;;2074914;28;20230;-71
2023/08/03 04:42:50;;;;;;;1.63;0.60;;;;;23.00;98291.00;;;;2055839;28;20221;-71
2023/08/03 04:43:50;;;;;;;0.90;0.50;;;;;23.00;98279.00;;;;2079724;28;20217;-71
2023/08/03 04:44:50;;;;;;;1.20;0.50;;;;;23.00;98287.00;;;;2075444;28;20253;-72
2023/08/03 04:45:51;;;;;;;2.17;1.00;;;;;23.00;98291.00;;;;2076873;28;20210;-72
2023/08/03 04:46:51;;;;;;;2.00;0.60;;;;;23.00;98290.00;;;;2076355;28;20217;-72
2023/08/03 04:47:51;;;;;;;2.10;0.87;;;;;23.00;98301.00;;;;2064354;28;20213;-72
2023/08/03 04:48:52;;;;;;;1.43;0.67;;;;;23.00;98294.00;;;;2077028;28;20239;-71
2023/08/03 04:49:52;;;;;;;1.90;0.70;;;;;23.00;98254.00;;;;2072448;28;20220;-71
2023/08/03 04:50:53;;;;;;;1.37;0.60;;;;;23.00;98288.00;;;;2076755;28;20217;-71
2023/08/03 04:51:53;;;;;;;2.33;0.90;;;;;23.00;98289.00;;;;2070483;28;20276;-72
2023/08/03 04:52:53;;;;;;;2.63;0.73;;;;;23.00;98300.00;;;;2061525;28;20325;-72
2023/08/03 04:53:54;;;;;;;1.07;0.60;;;;;23.00;98302.00;;;;2075321;28;20308;-72
2023/08/03 04:54:54;;;;;;;1.97;0.73;;;;;23.00;98304.00;;;;2077193;28;20205;-72
2023/08/03 04:55:54;;;;;;;2.80;0.80;;;;;23.00;98302.00;;;;2078401;28;20268;-72
2023/08/03 04:56:54;;;;;;;4.50;0.60;;;;;23.00;98309.00;;;;2070910;28;20214;-72
2023/08/03 04:57:55;;;;;;;1.90;0.70;;;;;23.00;98300.00;;;;2065721;28;20668;-72
2023/08/03 04:58:55;;;;;;;1.83;0.60;;;;;23.00;98303.00;;;;2080344;28;20248;-72
2023/08/03 04:59:56;;;;;;;1.10;0.70;;;;;23.00;98305.00;;;;2082030;28;20227;-72
2023/08/03 05:00:56;;;;;;;2.53;0.70;;;;;23.00;98300.00;;;;2069089;28;20215;-71
2023/08/03 05:01:57;;;;;;;2.03;0.57;;;;;23.00;98320.00;;;;2077504;28;20464;-71
2023/08/03 05:02:57;;;;;;;1.00;0.50;;;;;23.00;98304.00;;;;2064612;28;20293;-72